Metar z pełnej godziny Komunikat METAR ze strony awiacja.imgw.pl Metar G00 EPLL METAR EPLL 070000Z 25007KT 3900 -RA BR OVC003 01/01 Q1009 =